createdAt,value
2022-08-12T00:02:19.705Z,986.6
2022-08-12T00:16:41.773Z,986.5
2022-08-12T00:31:08.677Z,986.5
2022-08-12T00:45:36.429Z,986.4
2022-08-12T01:00:04.970Z,986.5
2022-08-12T01:14:38.996Z,986.6
2022-08-12T01:29:08.002Z,986.6
2022-08-12T01:43:31.730Z,986.5
2022-08-12T01:58:01.733Z,986.4
2022-08-12T02:12:34.407Z,986.3
2022-08-12T02:26:54.474Z,986.4
2022-08-12T02:41:23.049Z,986.4
2022-08-12T02:55:49.669Z,986.5
2022-08-12T03:10:38.017Z,986.4
2022-08-12T03:24:57.401Z,986.4
2022-08-12T03:39:37.477Z,986.4
2022-08-12T03:53:54.920Z,986.4
2022-08-12T04:08:22.515Z,986.5
2022-08-12T04:22:50.807Z,986.7
2022-08-12T04:37:18.971Z,986.6
2022-08-12T04:51:59.842Z,986.6
2022-08-12T05:06:27.378Z,986.5
2022-08-12T05:20:45.148Z,986.5
2022-08-12T05:35:12.483Z,986.6
2022-08-12T05:49:41.684Z,986.7
2022-08-12T06:04:09.602Z,986.7
2022-08-12T06:18:41.136Z,986.8
2022-08-12T06:33:24.650Z,986.7
2022-08-12T06:48:00.697Z,986.7
2022-08-12T07:02:37.398Z,986.7
2022-08-12T07:17:00.915Z,986.7
2022-08-12T07:31:36.728Z,986.9
2022-08-12T07:46:15.139Z,986.8
2022-08-12T08:00:48.645Z,986.8
2022-08-12T08:15:20.052Z,986.8
2022-08-12T08:29:50.767Z,986.8
2022-08-12T08:44:18.737Z,986.8
2022-08-12T08:58:55.312Z,986.8
2022-08-12T09:14:29.105Z,986.7
2022-08-12T09:28:32.144Z,986.6
2022-08-12T09:43:18.824Z,986.5
2022-08-12T09:59:02.170Z,986.4
2022-08-12T10:13:13.955Z,986.2
2022-08-12T10:28:19.000Z,986
2022-08-12T10:42:46.712Z,985.8
2022-08-12T10:58:28.485Z,985.8
2022-08-12T11:13:00.956Z,985.5
2022-08-12T11:27:18.409Z,985.4
2022-08-12T11:41:51.273Z,985.3
2022-08-12T11:56:19.615Z,985.1
2022-08-12T12:10:43.131Z,984.9
2022-08-12T12:25:14.674Z,984.9
2022-08-12T12:39:58.246Z,984.8
2022-08-12T12:54:11.896Z,984.5
2022-08-12T13:08:39.010Z,984.4
2022-08-12T13:23:37.918Z,984.3
2022-08-12T13:37:55.962Z,984.3
2022-08-12T13:52:26.499Z,984.2
2022-08-12T14:06:55.347Z,984.1
2022-08-12T14:21:22.755Z,984
2022-08-12T14:35:52.427Z,983.9
2022-08-12T15:08:04.734Z,983.9
2022-08-12T15:22:54.308Z,983.9
2022-08-12T15:37:02.112Z,983.7
2022-08-12T15:52:05.461Z,983.6
2022-08-12T16:06:59.149Z,983.7
2022-08-12T16:21:59.384Z,983.7
2022-08-12T16:36:04.813Z,983.5
2022-08-12T16:50:32.425Z,983.4
2022-08-12T17:04:56.164Z,983.3
2022-08-12T17:20:46.522Z,983.4
2022-08-12T17:34:47.091Z,983.5
2022-08-12T17:50:04.141Z,983.5
2022-08-12T18:04:36.368Z,983.5
2022-08-12T18:18:49.321Z,983.7
2022-08-12T18:33:15.039Z,983.9
2022-08-12T18:47:52.247Z,984
2022-08-12T19:02:23.634Z,984.1
2022-08-12T19:16:47.822Z,984.2
2022-08-12T19:31:09.438Z,984.2
2022-08-12T19:45:49.102Z,984.2
2022-08-12T20:00:06.769Z,984.3
2022-08-12T20:14:28.808Z,984.3
2022-08-12T20:28:57.318Z,984.3
2022-08-12T20:43:32.436Z,984.4
2022-08-12T20:58:05.286Z,984.4
2022-08-12T21:12:34.750Z,984.4
2022-08-12T21:27:07.665Z,984.5
2022-08-12T21:41:24.701Z,984.7
2022-08-12T21:55:51.904Z,984.7
2022-08-12T22:49:08.837Z,984.8
2022-08-12T23:02:45.238Z,984.6
2022-08-12T23:17:42.079Z,984.6
2022-08-12T23:32:10.087Z,984.5
2022-08-12T23:46:27.172Z,984.4
